Time;durP1;ratioP1;P1;durP2;ratioP2;P2;SDS_P1;SDS_P2;PMS_P1;PMS_P2;Temp;Humidity;BMP_temperature;BMP_pressure;BME280_temperature;BME280_humidity;BME280_pressure;Samples;Min_cycle;Max_cycle;Signal;HPM_P1;HPM_P2
2022/10/12 00:00:32;;;;;;;3.30;2.13;;;;;;;4.83;55.05;102569.00;5027423;28;20072;-66
2022/10/12 00:03:00;;;;;;;5.82;2.28;;;;;;;4.79;55.02;102572.41;5026361;28;20494;-66
2022/10/12 00:05:25;;;;;;;3.15;1.67;;;;;;;4.78;55.40;102574.97;5027489;28;20747;-67
2022/10/12 00:07:51;;;;;;;5.28;2.13;;;;;;;4.71;54.99;102574.03;5024304;28;20037;-68
2022/10/12 00:10:17;;;;;;;4.63;1.58;;;;;;;4.67;54.97;102572.25;5033147;28;20442;-68
2022/10/12 00:12:43;;;;;;;3.85;2.30;;;;;;;4.64;55.11;102578.28;5026998;28;20399;-68
2022/10/12 00:15:10;;;;;;;4.32;2.15;;;;;;;4.56;55.44;102573.84;5024491;28;20032;-68
2022/10/12 00:17:35;;;;;;;2.90;1.55;;;;;;;4.63;55.16;102575.66;5025633;28;20498;-68
2022/10/12 00:20:02;;;;;;;4.43;1.88;;;;;;;4.61;55.09;102572.19;5019186;28;20065;-68
2022/10/12 00:22:27;;;;;;;2.80;1.60;;;;;;;4.65;54.97;102576.53;5030713;28;20633;-68
2022/10/12 00:24:55;;;;;;;2.70;1.45;;;;;;;4.67;55.03;102572.25;5028682;28;20029;-69
2022/10/12 00:27:24;;;;;;;4.68;1.60;;;;;;;4.65;54.78;102576.53;5034007;28;20035;-68
2022/10/12 00:29:49;;;;;;;3.75;1.63;;;;;;;4.65;55.13;102573.94;5029284;28;20053;-68
2022/10/12 00:32:14;;;;;;;5.13;1.90;;;;;;;4.58;55.07;102572.16;5031736;28;20042;-68
2022/10/12 00:34:40;;;;;;;5.53;2.38;;;;;;;4.52;55.19;102578.13;5028330;28;20025;-67
2022/10/12 00:37:05;;;;;;;5.75;1.85;;;;;;;4.54;55.09;102566.09;5024665;28;20791;-67
2022/10/12 00:39:31;;;;;;;4.07;2.20;;;;;;;4.52;55.33;102564.28;5031990;28;20132;-67
2022/10/12 00:41:56;;;;;;;4.50;2.13;;;;;;;4.55;55.29;102569.53;5033912;28;20156;-74
2022/10/12 00:44:40;;;;;;;5.40;1.73;;;;;;;4.54;55.26;102560.00;5033095;28;20071;-74
2022/10/12 00:47:35;;;;;;;3.65;1.85;;;;;;;4.54;55.36;102563.50;5027862;28;20060;-73
2022/10/12 00:50:14;;;;;;;2.58;1.45;;;;;;;4.57;55.10;102558.34;5025250;28;20041;-73
2022/10/12 00:52:54;;;;;;;4.55;1.52;;;;;;;4.63;55.02;102562.69;5029427;28;20449;-73
2022/10/12 00:55:22;;;;;;;7.07;2.72;;;;;;;4.60;54.61;102566.13;5031504;28;20033;-77
2022/10/12 00:57:50;;;;;;;4.70;1.95;;;;;;;4.53;54.75;102558.28;5033031;28;20056;-77
2022/10/12 01:00:17;;;;;;;4.20;2.35;;;;;;;4.51;55.21;102554.81;5034186;28;20038;-74
2022/10/12 01:02:44;;;;;;;2.80;1.50;;;;;;;4.59;55.05;102563.53;5037796;28;20047;-74
2022/10/12 01:05:10;;;;;;;4.70;2.28;;;;;;;4.52;55.08;102559.13;5012596;28;20052;-74
2022/10/12 01:07:36;;;;;;;5.40;2.30;;;;;;;4.54;55.15;102560.91;5030336;28;20144;-74
2022/10/12 01:10:02;;;;;;;3.13;1.65;;;;;;;4.56;54.90;102566.94;5033566;28;20152;-73
2022/10/12 01:12:28;;;;;;;2.72;2.08;;;;;;;4.49;54.65;102561.69;5014049;28;20041;-74
2022/10/12 01:14:53;;;;;;;4.30;1.90;;;;;;;4.43;54.96;102560.75;5017783;28;20047;-67
2022/10/12 01:17:28;;;;;;;7.68;2.03;;;;;;;4.35;55.13;102564.97;5038820;28;20034;-68
2022/10/12 01:20:12;;;;;;;4.63;1.92;;;;;;;4.25;55.49;102555.31;5035245;28;20044;-68
2022/10/12 01:23:08;;;;;;;7.38;2.42;;;;;;;4.15;55.43;102561.25;5044283;28;20121;-68
2022/10/12 01:25:58;;;;;;;4.32;1.27;;;;;;;4.09;55.62;102551.66;5019802;28;20040;-69
2022/10/12 01:28:34;;;;;;;4.75;1.67;;;;;;;4.07;55.82;102552.50;5033061;28;20037;-68
2022/10/12 01:31:10;;;;;;;4.65;1.48;;;;;;;4.04;55.58;102555.91;5034190;28;20044;-69
2022/10/12 01:33:44;;;;;;;4.35;1.55;;;;;;;4.02;55.43;102557.59;5032748;28;20063;-70
2022/10/12 01:36:28;;;;;;;3.47;1.33;;;;;;;4.07;55.03;102553.34;5015259;28;20037;-69
2022/10/12 01:39:23;;;;;;;10.32;2.20;;;;;;;4.05;54.91;102554.19;5032465;28;20064;-69
2022/10/12 01:42:05;;;;;;;2.80;1.25;;;;;;;4.04;55.22;102557.63;5030839;28;20042;-69
2022/10/12 01:44:31;;;;;;;3.58;1.73;;;;;;;4.01;54.85;102556.72;5032511;28;20036;-68
2022/10/12 01:46:56;;;;;;;4.45;1.23;;;;;;;3.91;55.24;102557.44;5030340;28;20037;-69
2022/10/12 01:49:26;;;;;;;5.55;1.13;;;;;;;3.89;55.39;102553.94;5033370;28;20043;-68
2022/10/12 01:52:22;;;;;;;1.42;0.70;;;;;;;3.87;55.26;102549.63;5033837;28;20045;-68
2022/10/12 01:54:47;;;;;;;3.50;1.13;;;;;;;3.94;55.36;102557.50;5041293;28;20299;-69
2022/10/12 01:57:18;;;;;;;3.22;1.00;;;;;;;3.98;55.07;102559.28;5031052;28;20292;-69
2022/10/12 02:00:12;;;;;;;3.30;1.40;;;;;;;4.00;55.07;102546.34;5035241;28;20498;-67
2022/10/12 02:02:45;;;;;;;5.82;0.85;;;;;;;3.86;54.94;102547.88;5019405;28;20041;-66
2022/10/12 02:05:22;;;;;;;2.55;0.85;;;;;;;3.79;55.41;102541.75;5028645;28;20455;-67
2022/10/12 02:08:13;;;;;;;3.72;1.42;;;;;;;3.79;54.91;102541.75;5028254;28;20042;-66
2022/10/12 02:10:49;;;;;;;1.33;0.85;;;;;;;3.83;54.97;102538.38;5019249;28;20041;-67
2022/10/12 02:13:17;;;;;;;6.10;1.15;;;;;;;3.72;55.03;102539.94;5026725;28;20086;-66
2022/10/12 02:15:43;;;;;;;2.53;0.88;;;;;;;3.75;55.15;102542.53;5032226;28;20433;-66
2022/10/12 02:18:16;;;;;;;3.38;1.13;;;;;;;3.71;55.15;102539.03;5028574;28;20409;-67
2022/10/12 02:20:41;;;;;;;5.43;1.42;;;;;;;3.75;55.06;102534.78;5045726;28;20044;-66
2022/10/12 02:23:07;;;;;;;5.82;1.65;;;;;;;3.71;55.10;102533.84;5028091;28;20053;-69
2022/10/12 02:25:33;;;;;;;2.85;0.90;;;;;;;3.65;54.73;102527.72;5036745;28;20120;-75
2022/10/12 02:28:07;;;;;;;5.47;1.10;;;;;;;3.59;54.91;102519.03;5028786;28;20548;-75
2022/10/12 02:30:37;;;;;;;2.97;1.33;;;;;;;3.55;55.06;102522.41;5017407;28;20111;-71
2022/10/12 02:33:17;;;;;;;2.10;1.60;;;;;;;3.68;54.96;102525.19;5028980;28;20469;-77
2022/10/12 02:35:54;;;;;;;1.67;1.15;;;;;;;3.61;54.89;102520.78;5036378;28;20037;-71
2022/10/12 02:38:45;;;;;;;4.32;1.60;;;;;;;3.64;55.08;102518.25;5028864;28;20067;-71
2022/10/12 02:41:15;;;;;;;6.35;1.40;;;;;;;3.59;54.89;102518.16;5037767;28;20049;-71
2022/10/12 02:43:56;;;;;;;4.63;1.50;;;;;;;3.61;55.04;102516.47;5020116;28;20041;-70
2022/10/12 02:46:25;;;;;;;4.30;1.30;;;;;;;3.58;54.96;102512.13;5045003;28;20047;-70
2022/10/12 02:48:54;;;;;;;3.58;1.60;;;;;;;3.52;54.96;102501.69;5028795;28;20132;-69
2022/10/12 02:51:21;;;;;;;3.67;1.50;;;;;;;3.63;54.94;102511.31;5029435;28;20474;-70
2022/10/12 02:53:47;;;;;;;4.78;1.70;;;;;;;3.62;54.95;102501.81;5028403;28;20046;-68
2022/10/12 02:56:14;;;;;;;3.47;1.13;;;;;;;3.57;54.68;102499.19;5034350;28;20033;-72
2022/10/12 02:58:45;;;;;;;4.82;2.00;;;;;;;3.54;54.90;102505.16;5010172;28;20053;-68
2022/10/12 03:01:11;;;;;;;7.32;1.88;;;;;;;3.54;54.89;102499.13;5027614;28;20037;-68
2022/10/12 03:03:37;;;;;;;5.47;1.77;;;;;;;3.53;55.25;102498.25;5013240;28;20041;-74
2022/10/12 03:06:02;;;;;;;6.45;1.65;;;;;;;3.54;55.35;102510.34;5034610;28;20095;-77
2022/10/12 03:08:28;;;;;;;7.90;2.60;;;;;;;3.52;55.34;102501.69;5034595;28;20072;-67
2022/10/12 03:10:54;;;;;;;2.65;1.58;;;;;;;3.55;55.30;102506.91;5034926;28;20450;-68
2022/10/12 03:13:19;;;;;;;5.15;2.85;;;;;;;3.54;55.70;102499.13;5027498;28;20044;-75
2022/10/12 03:15:44;;;;;;;9.02;3.47;;;;;;;3.58;55.68;102496.63;5045386;28;20041;-76
2022/10/12 03:18:10;;;;;;;5.18;1.92;;;;;;;3.57;55.77;102500.03;5033594;28;20049;-76
2022/10/12 03:20:35;;;;;;;6.95;2.08;;;;;;;3.62;55.60;102499.25;5039808;28;20025;-73
2022/10/12 03:23:01;;;;;;;4.32;1.73;;;;;;;3.72;55.23;102503.72;5029442;28;20641;-72
2022/10/12 03:25:27;;;;;;;4.82;1.75;;;;;;;3.64;55.13;102494.97;5034510;28;20500;-75
2022/10/12 03:27:53;;;;;;;4.65;2.45;;;;;;;3.62;55.17;102499.25;5040215;28;20068;-75
2022/10/12 03:30:18;;;;;;;6.30;3.03;;;;;;;3.54;55.41;102493.97;5032154;28;20595;-74
2022/10/12 03:32:44;;;;;;;4.32;2.35;;;;;;;3.49;55.59;102495.59;5023750;28;20052;-72
2022/10/12 03:35:09;;;;;;;5.22;2.88;;;;;;;3.68;55.06;102483.81;5033142;28;20059;-73
2022/10/12 03:37:35;;;;;;;8.23;3.45;;;;;;;3.61;54.89;102489.75;5031089;28;20099;-72
2022/10/12 03:40:01;;;;;;;3.05;2.08;;;;;;;3.67;54.83;102482.97;5034836;28;20033;-74
2022/10/12 03:42:26;;;;;;;4.90;2.60;;;;;;;3.57;54.89;102478.50;5032622;28;20041;-72
2022/10/12 03:44:51;;;;;;;8.35;3.97;;;;;;;3.56;55.18;102482.81;5032277;28;20040;-73
2022/10/12 03:47:19;;;;;;;9.23;2.90;;;;;;;3.70;54.60;102477.81;5038488;28;20030;-75
2022/10/12 03:49:44;;;;;;;6.93;3.25;;;;;;;3.64;54.63;102479.44;5032873;28;20585;-76
2022/10/12 03:52:10;;;;;;;7.43;3.13;;;;;;;3.64;54.63;102480.31;5034136;28;20160;-74
2022/10/12 03:54:35;;;;;;;5.25;2.83;;;;;;;3.64;54.58;102487.22;5033083;28;20115;-74
2022/10/12 03:57:01;;;;;;;4.72;2.60;;;;;;;3.56;54.72;102485.38;5016898;28;20048;-75
2022/10/12 03:59:26;;;;;;;8.63;3.53;;;;;;;3.58;55.23;102482.81;5033402;28;20536;-74
2022/10/12 04:01:52;;;;;;;11.25;3.47;;;;;;;3.53;55.02;102476.69;5030733;28;20065;-77
2022/10/12 04:04:17;;;;;;;6.25;3.17;;;;;;;3.51;55.23;102483.56;5030722;28;20061;-76
2022/10/12 04:06:43;;;;;;;3.40;2.72;;;;;;;3.52;55.32;102482.72;5022657;28;20136;-74
2022/10/12 04:09:08;;;;;;;3.08;2.70;;;;;;;3.54;55.09;102483.63;5030302;28;20383;-75
2022/10/12 04:11:34;;;;;;;6.78;3.05;;;;;;;3.56;55.14;102480.22;5030051;28;20104;-77
2022/10/12 04:13:59;;;;;;;4.47;2.92;;;;;;;3.48;55.25;102486.97;5016403;28;20129;-76
2022/10/12 04:16:25;;;;;;;9.05;3.55;;;;;;;3.46;55.38;102485.22;5029994;28;21438;-77
2022/10/12 04:18:50;;;;;;;4.80;2.90;;;;;;;3.45;55.53;102476.59;5031024;28;20072;-73
2022/10/12 04:21:17;;;;;;;5.97;3.08;;;;;;;3.53;55.07;102482.72;5023842;28;20075;-74
2022/10/12 04:23:43;;;;;;;5.20;3.35;;;;;;;3.46;55.34;102475.75;5033229;28;20429;-71
2022/10/12 04:26:08;;;;;;;6.32;3.30;;;;;;;3.53;55.44;102480.16;5033177;28;20033;-69
2022/10/12 04:28:34;;;;;;;5.00;2.70;;;;;;;3.53;55.55;102482.72;5031224;28;21457;-71
2022/10/12 04:31:00;;;;;;;5.38;2.70;;;;;;;3.55;55.22;102481.03;5023977;28;20048;-69
2022/10/12 04:33:25;;;;;;;3.78;2.28;;;;;;;3.54;55.12;102478.47;5029391;28;20041;-71
2022/10/12 04:35:51;;;;;;;5.78;2.78;;;;;;;3.57;55.57;102479.34;5023496;28;20033;-70
2022/10/12 04:38:16;;;;;;;5.35;2.33;;;;;;;3.58;55.12;102481.09;5030327;28;20106;-70
2022/10/12 04:40:46;;;;;;;4.35;3.42;;;;;;;3.55;55.28;102480.19;5034731;28;20113;-69
2022/10/12 04:43:12;;;;;;;6.05;2.83;;;;;;;3.55;54.89;102485.34;5033224;28;20106;-70
2022/10/12 04:45:38;;;;;;;5.85;2.22;;;;;;;3.55;55.20;102486.22;5031091;28;20958;-67
2022/10/12 04:48:03;;;;;;;3.03;2.30;;;;;;;3.57;55.17;102488.84;5027729;28;20068;-66
2022/10/12 04:50:29;;;;;;;10.57;3.63;;;;;;;3.58;55.44;102485.38;5029940;28;20032;-66
2022/10/12 04:52:54;;;;;;;6.18;3.13;;;;;;;3.65;55.30;102486.34;5030025;28;20045;-66
2022/10/12 04:55:20;;;;;;;6.28;2.05;;;;;;;3.63;55.38;102482.88;5030229;28;20045;-68
2022/10/12 04:57:45;;;;;;;3.42;2.00;;;;;;;3.53;54.91;102476.69;5035652;28;20414;-72
2022/10/12 05:00:11;;;;;;;5.88;3.20;;;;;;;3.50;55.31;102482.69;5035013;28;20149;-71
2022/10/12 05:02:36;;;;;;;3.95;2.83;;;;;;;3.47;55.50;102474.91;5039432;28;20049;-68
2022/10/12 05:05:02;;;;;;;4.18;2.30;;;;;;;3.51;55.78;102480.97;5033875;28;20318;-76
2022/10/12 05:07:27;;;;;;;6.18;2.30;;;;;;;3.51;55.83;102480.97;5031134;28;20037;-78
2022/10/12 05:09:53;;;;;;;5.68;2.42;;;;;;;3.50;55.40;102481.84;5035490;28;20037;-68
2022/10/12 05:12:18;;;;;;;3.83;3.22;;;;;;;3.54;55.22;102479.31;5030504;28;20264;-67
2022/10/12 05:14:44;;;;;;;8.40;2.95;;;;;;;3.59;55.16;102482.84;5032454;28;20309;-69
2022/10/12 05:17:10;;;;;;;6.10;2.38;;;;;;;3.58;55.27;102478.53;5029363;28;20056;-66
2022/10/12 05:19:35;;;;;;;6.88;2.97;;;;;;;3.46;55.25;102475.75;5029915;28;20029;-69
2022/10/12 05:22:01;;;;;;;7.53;2.85;;;;;;;3.40;55.66;102475.63;5035974;28;20510;-73
2022/10/12 05:24:27;;;;;;;6.30;2.95;;;;;;;3.40;55.77;102470.47;5019851;28;20060;-70
2022/10/12 05:26:53;;;;;;;10.25;3.03;;;;;;;3.39;55.98;102479.94;5031453;28;20041;-72
2022/10/12 05:29:18;;;;;;;7.50;2.60;;;;;;;3.46;55.83;102475.75;5028100;28;20029;-66
2022/10/12 05:31:43;;;;;;;8.93;3.17;;;;;;;3.44;55.23;102480.00;5028259;28;20047;-66
2022/10/12 05:34:09;;;;;;;6.45;3.13;;;;;;;3.38;55.84;102472.16;5032159;28;20037;-69
2022/10/12 05:36:35;;;;;;;4.57;2.63;;;;;;;3.49;55.48;102477.50;5029304;28;20528;-68
2022/10/12 05:39:00;;;;;;;6.10;2.53;;;;;;;3.50;55.43;102474.94;5030344;28;20699;-68
2022/10/12 05:41:26;;;;;;;7.13;2.65;;;;;;;3.40;55.51;102465.28;5028359;28;20044;-69
2022/10/12 05:43:52;;;;;;;5.10;2.38;;;;;;;3.36;55.63;102469.56;5028801;28;20570;-72
2022/10/12 05:46:18;;;;;;;3.47;2.83;;;;;;;3.42;55.81;102463.59;5014967;28;20033;-70
2022/10/12 05:48:43;;;;;;;7.20;2.90;;;;;;;3.53;55.45;102462.06;5029051;28;20052;-69
2022/10/12 05:51:08;;;;;;;6.28;3.83;;;;;;;3.49;55.79;102465.47;5031171;28;20029;-72
2022/10/12 05:53:34;;;;;;;7.13;3.58;;;;;;;3.56;55.43;102458.63;5032657;28;20033;-70
2022/10/12 05:56:00;;;;;;;5.30;2.80;;;;;;;3.59;55.45;102456.13;5032979;28;20549;-71
2022/10/12 05:58:28;;;;;;;5.70;2.50;;;;;;;3.60;55.48;102452.66;5028410;28;20047;-68
2022/10/12 06:00:54;;;;;;;6.13;3.28;;;;;;;3.63;55.47;102454.44;5028558;28;20489;-69
2022/10/12 06:03:21;;;;;;;5.15;2.80;;;;;;;3.72;55.81;102459.75;5027544;28;20116;-69
2022/10/12 06:05:46;;;;;;;5.80;2.70;;;;;;;3.81;55.55;102459.88;5027023;28;20041;-69
2022/10/12 06:08:14;;;;;;;6.32;2.60;;;;;;;3.83;55.51;102455.59;5031436;28;20120;-71
2022/10/12 06:10:45;;;;;;;6.57;2.40;;;;;;;3.87;55.33;102461.66;5031163;28;20116;-68
2022/10/12 06:13:11;;;;;;;6.90;2.90;;;;;;;3.87;55.25;102462.53;5032809;28;20139;-71
2022/10/12 06:15:36;;;;;;;6.10;2.53;;;;;;;4.01;55.20;102463.59;5030484;28;20039;-68
2022/10/12 06:18:02;;;;;;;6.43;2.75;;;;;;;4.06;55.41;102462.78;5030062;28;20525;-70
2022/10/12 06:20:27;;;;;;;7.95;3.17;;;;;;;4.11;55.28;102461.13;5032435;28;20033;-70
2022/10/12 06:22:53;;;;;;;6.85;2.95;;;;;;;4.27;54.92;102463.03;5027393;28;20038;-70
2022/10/12 06:25:18;;;;;;;8.40;2.95;;;;;;;4.30;54.90;102455.31;5027889;28;20637;-69
2022/10/12 06:27:44;;;;;;;5.72;3.20;;;;;;;4.42;54.82;102455.44;5030244;28;20516;-69
2022/10/12 06:30:11;;;;;;;3.42;2.20;;;;;;;4.54;54.83;102461.59;5031765;28;20072;-68
2022/10/12 06:32:36;;;;;;;5.78;2.20;;;;;;;4.62;54.92;102457.38;5016818;28;20041;-69
2022/10/12 06:35:02;;;;;;;5.53;2.85;;;;;;;4.75;54.01;102461.84;5032960;28;20043;-69
2022/10/12 06:37:30;;;;;;;5.60;2.40;;;;;;;4.82;54.46;102458.44;5025527;28;20064;-70
2022/10/12 06:39:56;;;;;;;4.47;2.30;;;;;;;4.96;54.00;102449.97;5027268;28;20649;-69
2022/10/12 06:42:22;;;;;;;3.65;2.60;;;;;;;5.03;53.88;102449.16;5026233;28;20037;-67
2022/10/12 06:44:48;;;;;;;3.38;2.78;;;;;;;5.13;53.70;102458.75;5031166;28;20119;-70
2022/10/12 06:47:14;;;;;;;4.50;2.55;;;;;;;5.24;53.63;102451.94;5028328;28;20133;-69
2022/10/12 06:49:39;;;;;;;4.60;2.55;;;;;;;5.44;53.74;102446.03;5036571;28;20770;-73
2022/10/12 06:52:05;;;;;;;5.57;2.72;;;;;;;5.65;53.87;102451.31;5012397;28;20552;-69
2022/10/12 06:54:31;;;;;;;10.90;3.97;;;;;;;6.45;53.14;102449.09;5010172;28;20032;-71
2022/10/12 06:56:56;;;;;;;7.25;2.97;;;;;;;8.22;51.36;102448.91;5030468;28;20501;-74
2022/10/12 06:59:21;;;;;;;9.77;5.18;;;;;;;10.02;48.42;102455.25;5029469;28;20562;-75
2022/10/12 07:01:50;;;;;;;11.35;2.92;;;;;;;11.71;45.73;102449.06;5006814;28;20939;-75
2022/10/12 07:04:17;;;;;;;5.10;2.33;;;;;;;13.13;42.39;102442.41;5044600;28;20575;-74
2022/10/12 07:06:42;;;;;;;10.10;2.78;;;;;;;13.96;38.83;102455.91;5031726;28;20558;-76
2022/10/12 07:09:08;;;;;;;4.30;1.70;;;;;;;14.65;37.30;102455.59;5025325;28;20034;-68
2022/10/12 07:11:34;;;;;;;4.78;1.33;;;;;;;14.98;34.23;102448.38;5028984;28;20096;-68
2022/10/12 07:13:59;;;;;;;7.32;2.47;;;;;;;15.37;35.10;102447.94;5015485;28;20068;-68
2022/10/12 07:16:25;;;;;;;7.80;1.88;;;;;;;16.16;32.45;102445.94;5026376;28;20044;-70
2022/10/12 07:18:52;;;;;;;4.60;1.65;;;;;;;16.40;31.37;102452.88;5026198;28;20076;-69
2022/10/12 07:21:18;;;;;;;4.90;1.30;;;;;;;17.01;29.26;102451.31;5030911;28;20025;-66
2022/10/12 07:23:44;;;;;;;7.38;1.67;;;;;;;17.02;28.93;102448.63;5026402;28;20043;-67
2022/10/12 07:26:09;;;;;;;9.82;1.63;;;;;;;17.31;29.53;102448.28;5030028;28;20056;-72
2022/10/12 07:28:35;;;;;;;2.83;1.30;;;;;;;17.96;28.82;102447.13;5033192;28;20623;-70
2022/10/12 07:31:05;;;;;;;7.40;1.52;;;;;;;18.11;26.88;102445.53;5030990;28;20036;-70
2022/10/12 07:33:37;;;;;;;3.47;1.20;;;;;;;18.34;27.89;102451.53;5034013;28;20044;-70
2022/10/12 07:36:03;;;;;;;2.63;0.98;;;;;;;18.89;27.62;102449.69;5030844;28;20227;-71
2022/10/12 07:38:30;;;;;;;4.32;1.70;;;;;;;19.37;26.31;102454.34;5030474;28;20045;-70
2022/10/12 07:41:00;;;;;;;5.00;1.63;;;;;;;19.79;25.16;102453.03;5030695;28;20052;-71
2022/10/12 07:43:26;;;;;;;4.72;1.80;;;;;;;20.10;24.60;102453.06;5028387;28;20045;-71
2022/10/12 07:45:52;;;;;;;6.25;1.42;;;;;;;20.39;25.53;102439.94;5031931;28;20030;-73
2022/10/12 07:48:17;;;;;;;4.20;1.60;;;;;;;20.74;24.09;102451.19;5036650;28;20060;-71
2022/10/12 07:50:42;;;;;;;8.75;1.95;;;;;;;20.63;24.77;102444.78;5033928;28;20045;-71
2022/10/12 07:53:08;;;;;;;9.80;1.58;;;;;;;19.91;24.45;102444.41;5030120;28;20128;-72
2022/10/12 07:55:33;;;;;;;4.53;1.30;;;;;;;20.04;26.07;102453.41;5030534;28;20108;-70
2022/10/12 07:57:59;;;;;;;4.45;1.77;;;;;;;20.00;24.17;102453.66;5030304;28;20132;-70
2022/10/12 08:00:25;;;;;;;5.35;1.70;;;;;;;19.41;24.81;102446.16;5039105;28;20656;-69
2022/10/12 08:02:51;;;;;;;9.27;1.95;;;;;;;19.28;26.29;102453.91;5044204;28;20037;-69
2022/10/12 08:05:19;;;;;;;8.40;2.88;;;;;;;19.60;25.66;102443.41;5030404;28;20448;-72
2022/10/12 08:07:46;;;;;;;9.23;1.98;;;;;;;19.75;24.95;102444.38;5031510;28;20041;-71
2022/10/12 08:10:12;;;;;;;6.95;1.88;;;;;;;19.86;25.14;102444.66;5034177;28;20028;-71
2022/10/12 08:12:37;;;;;;;2.78;1.20;;;;;;;20.04;25.03;102445.44;5027769;28;20052;-71
2022/10/12 08:15:03;;;;;;;7.93;2.10;;;;;;;18.73;26.69;102454.03;5030454;28;20479;-69
2022/10/12 08:17:29;;;;;;;9.90;2.40;;;;;;;18.63;25.74;102448.34;5035157;28;20067;-71
2022/10/12 08:19:54;;;;;;;6.07;2.30;;;;;;;18.80;26.06;102447.50;5015572;28;20039;-70
2022/10/12 08:22:20;;;;;;;9.00;2.08;;;;;;;18.86;26.72;102447.19;5031552;28;20164;-71
2022/10/12 08:24:45;;;;;;;6.22;1.88;;;;;;;18.63;27.74;102450.13;5029781;28;20050;-69
2022/10/12 08:27:11;;;;;;;9.70;1.90;;;;;;;18.59;27.02;102453.88;5028683;28;20048;-71
2022/10/12 08:29:38;;;;;;;7.93;1.55;;;;;;;18.79;26.18;102459.03;5027318;28;20056;-70
2022/10/12 08:32:04;;;;;;;9.55;1.98;;;;;;;18.21;28.79;102449.50;5032502;28;20037;-69
2022/10/12 08:34:30;;;;;;;11.55;2.90;;;;;;;18.30;28.15;102455.28;5028620;28;20171;-71
2022/10/12 08:36:57;;;;;;;8.15;1.92;;;;;;;18.52;28.50;102449.78;5013315;28;20029;-71
2022/10/12 08:39:22;;;;;;;6.38;1.90;;;;;;;18.42;28.23;102450.25;5025956;28;20488;-71
2022/10/12 08:41:57;;;;;;;7.78;1.58;;;;;;;17.88;29.88;102446.63;5026695;28;20041;-71
2022/10/12 08:44:44;;;;;;;7.80;1.90;;;;;;;17.18;30.83;102448.81;5027113;28;20037;-71
2022/10/12 08:47:28;;;;;;;7.75;1.83;;;;;;;16.68;30.33;102449.13;5028918;28;20089;-69
2022/10/12 08:49:54;;;;;;;5.88;2.10;;;;;;;16.40;30.46;102447.59;5020754;28;20606;-70
2022/10/12 08:52:27;;;;;;;10.93;1.77;;;;;;;16.34;31.43;102439.94;5022089;28;20633;-71
2022/10/12 08:54:59;;;;;;;4.82;1.67;;;;;;;15.95;31.29;102437.91;5012588;28;20041;-70
2022/10/12 08:57:24;;;;;;;6.55;2.05;;;;;;;15.88;31.84;102439.03;5027666;28;20168;-69
2022/10/12 08:59:50;;;;;;;10.85;2.10;;;;;;;15.85;32.07;102436.53;5027218;28;20049;-69
2022/10/12 09:02:43;;;;;;;9.90;2.30;;;;;;;16.38;31.63;102430.97;5028864;28;20041;-71
2022/10/12 09:05:17;;;;;;;6.00;2.85;;;;;;;16.25;32.03;102436.81;5033986;28;20316;-69
2022/10/12 09:07:54;;;;;;;4.93;1.60;;;;;;;16.23;31.50;102433.38;5027563;28;20043;-70
2022/10/12 09:10:37;;;;;;;5.20;1.70;;;;;;;16.27;31.17;102432.34;5027490;28;20025;-70
2022/10/12 09:13:12;;;;;;;4.90;1.48;;;;;;;16.16;31.19;102430.97;5025606;28;20144;-71
2022/10/12 09:15:50;;;;;;;7.57;1.58;;;;;;;16.65;31.71;102424.66;5028918;28;20111;-72
2022/10/12 09:18:20;;;;;;;9.35;2.35;;;;;;;16.93;30.71;102414.66;5030158;28;20053;-71
2022/10/12 09:20:48;;;;;;;6.32;1.27;;;;;;;17.33;30.52;102422.63;5039999;28;20068;-70
2022/10/12 09:23:24;;;;;;;8.75;2.60;;;;;;;17.44;29.48;102428.31;5028183;28;20045;-70
2022/10/12 09:25:52;;;;;;;8.63;2.05;;;;;;;17.51;30.78;102418.34;5030095;28;20041;-72
2022/10/12 09:28:52;;;;;;;5.35;1.63;;;;;;;17.64;29.87;102417.72;5028741;28;20048;-71
2022/10/12 09:32:02;;;;;;;7.57;1.10;;;;;;;17.02;29.34;102421.31;5037921;28;20257;-72
2022/10/12 09:34:27;;;;;;;3.83;0.95;;;;;;;16.29;29.55;102414.66;4942495;28;20081;-70
2022/10/12 09:36:54;;;;;;;6.90;1.40;;;;;;;16.65;29.87;102417.56;4960070;28;20054;-71
2022/10/12 09:39:43;;;;;;;5.57;1.55;;;;;;;16.96;28.84;102411.91;4969861;28;20045;-71
2022/10/12 09:42:09;;;;;;;8.40;1.35;;;;;;;16.90;29.66;102408.66;5030981;28;20079;-70
2022/10/12 09:44:40;;;;;;;8.63;1.95;;;;;;;17.32;29.64;102413.00;5031986;28;20033;-70
2022/10/12 09:47:28;;;;;;;8.13;2.07;;;;;;;17.42;30.63;102414.28;5030315;28;20108;-71
2022/10/12 09:49:57;;;;;;;10.88;2.00;;;;;;;17.39;30.42;102414.44;5030920;28;20603;-70
2022/10/12 09:52:27;;;;;;;6.47;1.20;;;;;;;17.26;29.71;102408.84;5030278;28;20410;-71
2022/10/12 09:54:57;;;;;;;8.65;1.25;;;;;;;17.50;30.03;102416.63;5031264;28;20029;-70
2022/10/12 09:57:27;;;;;;;4.55;0.82;;;;;;;17.38;29.80;102415.34;5031513;28;20037;-72
2022/10/12 09:59:53;;;;;;;7.32;0.93;;;;;;;18.07;29.07;102414.84;5020330;28;20516;-71
2022/10/12 10:02:25;;;;;;;12.68;1.52;;;;;;;17.47;30.04;102420.25;5030375;28;20042;-71
2022/10/12 10:04:52;;;;;;;8.85;1.33;;;;;;;17.54;29.62;102419.06;5030258;28;20037;-70
2022/10/12 10:07:23;;;;;;;4.93;1.15;;;;;;;17.64;30.22;102425.66;5025516;28;20047;-70
2022/10/12 10:10:08;;;;;;;;;;;;;;;17.38;30.23;102424.16;5030356;28;20044;-70
2022/10/12 10:12:42;;;;;;;1.67;0.70;;;;;;;17.63;29.41;102423.94;5029521;28;19920;-70
2022/10/12 10:15:21;;;;;;;3.88;0.80;;;;;;;18.00;30.55;102416.06;5027852;28;20043;-70
2022/10/12 10:17:52;;;;;;;5.10;1.35;;;;;;;18.44;29.54;102421.91;5034778;28;20048;-70
2022/10/12 10:20:37;;;;;;;10.43;1.33;;;;;;;18.50;28.29;102414.59;5028712;28;20387;-71
2022/10/12 10:23:04;;;;;;;6.32;1.48;;;;;;;18.60;28.55;102421.16;5028911;28;20073;-69
2022/10/12 10:25:30;;;;;;;4.32;0.85;;;;;;;19.16;27.66;102420.06;5027912;28;20071;-70
2022/10/12 10:28:11;;;;;;;6.45;0.80;;;;;;;18.87;27.26;102413.59;5028295;28;20117;-70
2022/10/12 10:30:37;;;;;;;9.95;1.27;;;;;;;18.60;27.92;102411.41;5028658;28;20052;-69
2022/10/12 10:33:21;;;;;;;11.00;3.03;;;;;;;18.64;27.68;102404.19;5030566;28;20485;-69
2022/10/12 10:35:59;;;;;;;4.90;0.90;;;;;;;17.99;28.34;102399.34;5038765;28;20093;-69
2022/10/12 10:38:25;;;;;;;6.53;0.60;;;;;;;17.56;30.12;102396.06;5033276;28;20033;-71
2022/10/12 10:40:53;;;;;;;11.25;1.00;;;;;;;17.93;29.58;102394.34;5020844;28;20042;-69
2022/10/12 10:43:24;;;;;;;6.28;0.70;;;;;;;17.58;29.44;102396.88;5029549;28;20329;-70
2022/10/12 10:45:52;;;;;;;9.13;0.75;;;;;;;17.01;29.07;102387.94;5017438;28;20117;-71
2022/10/12 10:48:21;;;;;;;5.90;0.88;;;;;;;17.48;28.54;102392.06;5032736;28;20037;-70
2022/10/12 10:51:06;;;;;;;6.03;0.65;;;;;;;18.30;28.14;102384.69;5034088;28;20472;-71
2022/10/12 10:53:51;;;;;;;9.10;1.40;;;;;;;17.90;28.06;102378.63;5023439;28;20198;-70
2022/10/12 10:56:30;;;;;;;5.68;0.68;;;;;;;17.05;29.05;102378.09;5011075;28;20040;-69
2022/10/12 10:58:58;;;;;;;7.15;0.95;;;;;;;16.71;29.58;102379.50;5028518;28;20045;-70
2022/10/12 11:01:48;;;;;;;4.90;0.50;;;;;;;16.73;29.51;102386.44;5024851;28;20127;-72
2022/10/12 11:04:26;;;;;;;5.28;1.10;;;;;;;16.54;29.67;102377.56;5029138;28;20428;-70
2022/10/12 11:07:04;;;;;;;3.58;0.60;;;;;;;16.72;30.04;102386.50;5027939;28;20056;-70
2022/10/12 11:09:41;;;;;;;5.60;0.50;;;;;;;16.83;29.30;102379.88;5021290;28;20308;-69
2022/10/12 11:12:15;;;;;;;4.03;0.93;;;;;;;16.43;30.58;102375.38;5024732;28;20094;-71
2022/10/12 11:14:55;;;;;;;7.00;0.85;;;;;;;16.83;29.57;102371.94;5013569;28;20095;-69
2022/10/12 11:17:30;;;;;;;10.23;0.90;;;;;;;17.10;28.91;102365.53;5020924;28;20461;-70
2022/10/12 11:20:34;;;;;;;3.78;0.38;;;;;;;17.23;28.98;102364.91;5015926;28;20643;-69
2022/10/12 11:23:16;;;;;;;2.03;0.73;;;;;;;17.34;29.08;102358.31;4992023;28;20084;-70
2022/10/12 11:26:01;;;;;;;4.72;0.43;;;;;;;16.57;30.35;102351.03;5032633;28;21250;-69
2022/10/12 11:28:31;;;;;;;5.53;0.85;;;;;;;16.65;30.31;102348.09;5008633;28;20622;-69
2022/10/12 11:30:57;;;;;;;7.38;0.60;;;;;;;16.63;29.65;102345.50;5040282;28;20336;-70
2022/10/12 11:33:38;;;;;;;3.47;0.55;;;;;;;17.22;30.61;102346.47;5022853;28;20040;-71
2022/10/12 11:36:18;;;;;;;5.47;0.40;;;;;;;17.35;28.75;102350.28;5029411;28;20029;-71
2022/10/12 11:38:45;;;;;;;5.88;0.70;;;;;;;17.85;29.02;102338.34;5030818;28;20052;-69
2022/10/12 11:41:19;;;;;;;5.38;1.27;;;;;;;17.42;28.32;102327.94;5026902;28;20341;-70